Time;durP1;ratioP1;P1;durP2;ratioP2;P2;SDS_P1;SDS_P2;PMS_P1;PMS_P2;Temp;Humidity;BMP_temperature;BMP_pressure;BME280_temperature;BME280_humidity;BME280_pressure;Samples;Min_cycle;Max_cycle;Signal;HPM_P1;HPM_P2
2022/01/26 00:19:24;;;;;;;9.55;5.70;;;;;;;;;;4470526;28;20233;-62
2022/01/26 00:29:22;;;;;;;8.27;5.15;;;;;;;;;;4199541;34;20579;-65
2022/01/26 00:40:38;;;;;;;9.00;5.25;;;;;;;;;;4191769;34;20213;-64
2022/01/26 00:43:20;;;;;;;9.57;5.72;;;;;;;;;;4191740;34;20137;-62
2022/01/26 00:45:49;;;;;;;9.38;5.10;;;;;;;;;;4180554;34;20126;-61
2022/01/26 00:48:20;;;;;;;9.50;4.90;;;;;;;;;;4191722;34;20121;-61
2022/01/26 00:50:51;;;;;;;7.57;5.75;;;;;;;;;;4191585;34;20117;-61
2022/01/26 00:53:25;;;;;;;9.60;5.68;;;;;;;;;;4179585;34;20114;-62
2022/01/26 00:55:51;;;;;;;8.10;5.62;;;;;;;;;;4204288;34;20106;-62
2022/01/26 00:58:17;;;;;;;8.20;4.95;;;;;;;;;;4205618;34;20121;-63
2022/01/26 01:00:43;;;;;;;6.78;4.97;;;;;;;;;;4205506;34;20109;-64
2022/01/26 01:03:09;;;;;;;8.75;4.78;;;;;;;;;;4205451;34;20181;-64
2022/01/26 01:05:42;;;;;;;7.80;5.00;;;;;;;;;;4205455;34;20129;-63
2022/01/26 01:08:14;;;;;;;7.93;5.60;;;;;;;;;;4205656;34;20128;-64
2022/01/26 01:10:40;;;;;;;7.70;5.15;;;;;;;;;;4205427;34;20109;-63
2022/01/26 01:13:14;;;;;;;7.87;5.32;;;;;;;;;;4205327;34;20221;-63
2022/01/26 01:15:40;;;;;;;6.30;4.72;;;;;;;;;;4204379;34;20194;-65
2022/01/26 01:18:17;;;;;;;9.02;5.28;;;;;;;;;;4205273;34;20098;-66
2022/01/26 01:23:31;;;;;;;8.57;5.75;;;;;;;;;;4191358;34;20144;-63
2022/01/26 01:28:49;;;;;;;9.77;5.53;;;;;;;;;;4191703;34;19973;-64
2022/01/26 01:31:27;;;;;;;9.73;6.65;;;;;;;;;;4191312;34;20121;-64
2022/01/26 01:33:53;;;;;;;8.32;6.35;;;;;;;;;;4191315;34;20246;-63
2022/01/26 01:36:21;;;;;;;8.40;6.57;;;;;;;;;;4191447;34;20547;-64
2022/01/26 01:38:48;;;;;;;8.60;6.37;;;;;;;;;;4191186;34;20211;-65
2022/01/26 01:41:14;;;;;;;11.07;7.40;;;;;;;;;;4191248;34;20650;-64
2022/01/26 01:43:40;;;;;;;9.63;7.07;;;;;;;;;;4191345;34;20090;-64
2022/01/26 01:46:06;;;;;;;12.43;7.03;;;;;;;;;;4191459;34;20126;-63
2022/01/26 01:48:34;;;;;;;9.13;6.80;;;;;;;;;;4178488;34;20126;-64
2022/01/26 01:51:04;;;;;;;11.23;7.55;;;;;;;;;;4191157;34;20439;-63
2022/01/26 01:53:36;;;;;;;8.35;6.90;;;;;;;;;;4191159;34;20181;-64
2022/01/26 01:56:03;;;;;;;9.70;6.75;;;;;;;;;;4203959;34;20511;-64
2022/01/26 01:58:29;;;;;;;10.07;7.22;;;;;;;;;;4205064;34;20120;-64
2022/01/26 02:00:56;;;;;;;8.35;6.12;;;;;;;;;;4204879;34;20133;-64
2022/01/26 02:03:23;;;;;;;10.77;7.15;;;;;;;;;;4205091;34;20125;-63
2022/01/26 02:05:50;;;;;;;13.05;7.30;;;;;;;;;;4204961;34;20110;-64
2022/01/26 02:08:16;;;;;;;8.93;7.45;;;;;;;;;;4204900;34;20216;-63
2022/01/26 02:10:42;;;;;;;11.35;6.87;;;;;;;;;;4205041;34;20610;-64
2022/01/26 02:13:19;;;;;;;9.23;7.10;;;;;;;;;;4204803;34;20192;-65
2022/01/26 02:15:54;;;;;;;12.70;7.37;;;;;;;;;;4204831;34;20206;-65
2022/01/26 02:18:36;;;;;;;10.90;6.85;;;;;;;;;;4204984;34;20183;-66
2022/01/26 02:56:47;;;;;;;9.90;8.23;;;;;;;;;;4190897;34;20101;-62
2022/01/26 03:02:05;;;;;;;9.02;7.30;;;;;;;;;;4190716;34;20213;-65
2022/01/26 03:09:32;;;;;;;9.32;7.60;;;;;;;;;;4192084;34;20153;-64
2022/01/26 03:12:00;;;;;;;12.93;8.40;;;;;;;;;;4193147;34;20197;-63
2022/01/26 03:17:05;;;;;;;12.20;8.13;;;;;;;;;;4204276;34;20117;-61
2022/01/26 03:19:37;;;;;;;9.50;7.93;;;;;;;;;;4204213;34;20493;-63
2022/01/26 03:30:04;;;;;;;9.57;7.78;;;;;;;;;;4190097;34;20086;-61
2022/01/26 03:35:18;;;;;;;9.15;7.55;;;;;;;;;;4190153;34;20087;-62
2022/01/26 03:37:54;;;;;;;11.85;8.23;;;;;;;;;;4193430;34;20168;-62
2022/01/26 03:40:29;;;;;;;9.60;7.53;;;;;;;;;;4205988;34;20133;-63
2022/01/26 03:42:55;;;;;;;11.03;7.80;;;;;;;;;;4205999;34;20121;-66
2022/01/26 03:45:21;;;;;;;11.90;7.97;;;;;;;;;;4205888;34;20126;-65
2022/01/26 03:47:47;;;;;;;11.65;7.65;;;;;;;;;;4205873;34;20174;-64
2022/01/26 03:50:13;;;;;;;9.10;7.28;;;;;;;;;;4205861;34;20093;-63
2022/01/26 03:52:39;;;;;;;11.40;7.85;;;;;;;;;;4205863;34;20101;-64
2022/01/26 03:55:06;;;;;;;9.93;7.68;;;;;;;;;;4205773;34;20098;-62
2022/01/26 03:57:32;;;;;;;11.80;8.43;;;;;;;;;;4205706;34;20105;-62
2022/01/26 03:59:58;;;;;;;15.80;10.95;;;;;;;;;;4205719;34;20193;-63
2022/01/26 04:02:24;;;;;;;15.18;10.32;;;;;;;;;;4205746;34;20113;-63
2022/01/26 04:04:56;;;;;;;15.25;9.20;;;;;;;;;;4203261;34;20110;-63
2022/01/26 04:07:23;;;;;;;11.35;9.00;;;;;;;;;;4179886;34;20206;-62
2022/01/26 04:09:49;;;;;;;16.58;10.90;;;;;;;;;;4191574;34;20578;-64
2022/01/26 04:12:15;;;;;;;16.30;10.82;;;;;;;;;;4191947;34;20115;-64
2022/01/26 04:14:45;;;;;;;13.10;9.70;;;;;;;;;;4190029;34;20447;-62
2022/01/26 04:17:11;;;;;;;12.90;9.50;;;;;;;;;;4190770;34;20208;-61
2022/01/26 04:19:39;;;;;;;11.12;8.50;;;;;;;;;;4191801;34;20141;-61
2022/01/26 04:22:20;;;;;;;10.80;8.40;;;;;;;;;;4191721;34;20207;-62
2022/01/26 04:24:51;;;;;;;12.68;8.85;;;;;;;;;;4191907;34;20509;-62
2022/01/26 04:27:23;;;;;;;16.23;10.52;;;;;;;;;;4190894;34;20114;-61
2022/01/26 04:29:50;;;;;;;12.32;8.90;;;;;;;;;;4190847;34;20110;-61
2022/01/26 04:32:17;;;;;;;17.73;8.98;;;;;;;;;;4191824;34;20099;-61
2022/01/26 04:34:45;;;;;;;13.40;8.55;;;;;;;;;;4191783;34;20094;-61
2022/01/26 04:39:53;;;;;;;10.80;7.97;;;;;;;;;;4198312;34;20118;-61
2022/01/26 04:42:40;;;;;;;10.63;8.07;;;;;;;;;;4205523;34;20086;-61
2022/01/26 04:45:09;;;;;;;11.18;7.95;;;;;;;;;;4205380;34;20097;-61
2022/01/26 04:47:35;;;;;;;11.30;8.00;;;;;;;;;;4205427;34;20116;-62
2022/01/26 04:50:02;;;;;;;10.65;8.40;;;;;;;;;;4192478;34;20125;-61
2022/01/26 04:52:28;;;;;;;13.23;8.43;;;;;;;;;;4205322;34;20509;-60
2022/01/26 04:54:54;;;;;;;10.23;8.00;;;;;;;;;;4205306;34;20494;-61
2022/01/26 04:57:20;;;;;;;11.07;8.27;;;;;;;;;;4205267;34;20121;-62
2022/01/26 04:59:46;;;;;;;12.43;8.50;;;;;;;;;;4205413;34;20474;-61
2022/01/26 05:02:12;;;;;;;11.68;8.55;;;;;;;;;;4205350;34;20121;-60
2022/01/26 05:04:38;;;;;;;12.63;8.75;;;;;;;;;;4205112;34;20124;-60
2022/01/26 05:07:04;;;;;;;10.65;8.85;;;;;;;;;;4192625;34;20102;-60
2022/01/26 05:09:30;;;;;;;10.05;7.55;;;;;;;;;;4191664;34;20122;-59
2022/01/26 05:11:56;;;;;;;12.05;8.80;;;;;;;;;;4191308;34;20110;-60
2022/01/26 05:14:23;;;;;;;14.38;8.38;;;;;;;;;;4191319;34;20241;-60
2022/01/26 05:16:49;;;;;;;11.60;8.30;;;;;;;;;;4191321;34;20106;-62
2022/01/26 05:19:15;;;;;;;12.05;8.40;;;;;;;;;;4191096;34;20194;-64
2022/01/26 05:21:42;;;;;;;12.93;8.25;;;;;;;;;;4191024;34;20125;-63
2022/01/26 05:24:10;;;;;;;11.98;9.15;;;;;;;;;;4191202;34;20110;-65
2022/01/26 05:26:40;;;;;;;12.50;8.13;;;;;;;;;;4191310;34;20483;-60
2022/01/26 05:29:07;;;;;;;10.90;8.25;;;;;;;;;;4191213;34;20111;-60
2022/01/26 05:31:33;;;;;;;13.82;8.45;;;;;;;;;;4191240;34;20110;-61
2022/01/26 05:33:59;;;;;;;11.90;8.00;;;;;;;;;;4191264;34;20208;-61
2022/01/26 05:36:25;;;;;;;10.30;8.00;;;;;;;;;;4191248;34;20109;-59
2022/01/26 05:38:51;;;;;;;10.23;7.25;;;;;;;;;;4191183;34;20113;-59
2022/01/26 05:41:17;;;;;;;10.80;7.68;;;;;;;;;;4191139;34;20106;-59
2022/01/26 05:43:43;;;;;;;8.80;7.32;;;;;;;;;;4191076;34;20183;-61
2022/01/26 05:46:19;;;;;;;11.68;7.60;;;;;;;;;;4191058;34;20129;-61
2022/01/26 05:48:46;;;;;;;10.60;7.85;;;;;;;;;;4191129;34;20459;-60
2022/01/26 05:51:15;;;;;;;9.98;7.93;;;;;;;;;;4191097;34;20114;-62
2022/01/26 05:53:41;;;;;;;10.48;7.85;;;;;;;;;;4190818;34;20118;-63
2022/01/26 05:56:07;;;;;;;10.45;7.53;;;;;;;;;;4191142;34;20207;-62
2022/01/26 05:58:33;;;;;;;11.02;8.57;;;;;;;;;;4190910;34;20130;-63
2022/01/26 06:01:00;;;;;;;8.88;7.50;;;;;;;;;;4190470;34;20122;-60
2022/01/26 06:03:28;;;;;;;11.40;7.95;;;;;;;;;;4190935;34;20093;-60
2022/01/26 06:05:54;;;;;;;11.60;8.48;;;;;;;;;;4191053;34;20209;-60
2022/01/26 06:08:21;;;;;;;12.65;8.77;;;;;;;;;;4190646;34;20110;-60
2022/01/26 06:10:48;;;;;;;10.85;7.85;;;;;;;;;;4190998;34;20525;-60
2022/01/26 06:13:14;;;;;;;11.35;8.43;;;;;;;;;;4190827;34;20193;-60
2022/01/26 06:15:40;;;;;;;11.80;8.05;;;;;;;;;;4191068;34;20523;-60
2022/01/26 06:18:06;;;;;;;11.23;8.80;;;;;;;;;;4190785;34;20121;-61
2022/01/26 06:20:32;;;;;;;11.50;7.53;;;;;;;;;;4190728;34;20223;-61
2022/01/26 06:22:58;;;;;;;9.32;7.82;;;;;;;;;;4190720;34;20119;-60
2022/01/26 06:25:26;;;;;;;8.98;7.10;;;;;;;;;;4190750;34;20813;-58
2022/01/26 06:27:55;;;;;;;10.00;7.10;;;;;;;;;;4178240;34;20415;-59
2022/01/26 06:30:22;;;;;;;10.88;8.07;;;;;;;;;;4190721;34;20213;-59
2022/01/26 06:32:50;;;;;;;11.27;8.25;;;;;;;;;;4190651;34;20109;-58
2022/01/26 06:35:16;;;;;;;10.10;7.95;;;;;;;;;;4190604;34;20530;-59
2022/01/26 06:37:44;;;;;;;11.35;8.25;;;;;;;;;;4190627;34;20128;-61
2022/01/26 06:40:10;;;;;;;10.82;8.50;;;;;;;;;;4190506;34;20477;-60
2022/01/26 06:42:52;;;;;;;10.55;7.37;;;;;;;;;;4190517;34;20106;-63
2022/01/26 06:45:22;;;;;;;10.40;8.07;;;;;;;;;;4190550;34;20560;-62
2022/01/26 06:50:18;;;;;;;10.63;8.07;;;;;;;;;;4190759;34;20126;-59
2022/01/26 06:52:47;;;;;;;12.52;8.52;;;;;;;;;;4190456;34;20148;-61
2022/01/26 06:55:14;;;;;;;12.05;8.40;;;;;;;;;;4190445;34;20541;-60
2022/01/26 06:57:41;;;;;;;13.77;8.38;;;;;;;;;;4190476;34;20106;-61
2022/01/26 07:00:08;;;;;;;10.68;7.50;;;;;;;;;;4190332;34;20118;-59
2022/01/26 07:02:36;;;;;;;11.07;8.18;;;;;;;;;;4190362;34;20181;-60
2022/01/26 07:05:02;;;;;;;13.13;8.55;;;;;;;;;;4190220;34;20162;-60
2022/01/26 07:07:28;;;;;;;10.18;7.80;;;;;;;;;;4190330;34;20463;-60
2022/01/26 07:09:54;;;;;;;9.32;7.37;;;;;;;;;;4190279;34;20133;-60
2022/01/26 07:12:20;;;;;;;10.65;7.00;;;;;;;;;;4191107;34;20106;-61
2022/01/26 07:22:47;;;;;;;9.80;7.78;;;;;;;;;;4192180;34;20474;-59
2022/01/26 07:25:13;;;;;;;10.23;7.82;;;;;;;;;;4192155;34;20112;-59
2022/01/26 07:27:40;;;;;;;13.27;7.97;;;;;;;;;;4192408;34;20117;-61
2022/01/26 07:30:07;;;;;;;9.70;7.15;;;;;;;;;;4192358;34;20106;-60
2022/01/26 07:32:36;;;;;;;9.55;7.72;;;;;;;;;;4192258;34;20126;-60
2022/01/26 07:35:02;;;;;;;8.88;7.28;;;;;;;;;;4192081;34;20277;-60
2022/01/26 07:37:28;;;;;;;9.75;7.07;;;;;;;;;;4192149;34;20549;-61
2022/01/26 07:40:04;;;;;;;11.57;7.25;;;;;;;;;;4192225;34;20205;-61
2022/01/26 07:42:31;;;;;;;10.15;7.57;;;;;;;;;;4192241;34;20117;-60
2022/01/26 07:44:57;;;;;;;9.27;7.32;;;;;;;;;;4192050;34;20509;-61
2022/01/26 07:47:23;;;;;;;11.12;7.68;;;;;;;;;;4192130;34;20113;-61
2022/01/26 07:49:53;;;;;;;13.38;8.32;;;;;;;;;;4192331;34;20435;-61
2022/01/26 07:52:19;;;;;;;8.20;5.07;;;;;;;;;;4192149;34;20101;-60
2022/01/26 07:54:48;;;;;;;12.15;5.78;;;;;;;;;;4192005;34;20194;-61
2022/01/26 07:57:14;;;;;;;11.95;6.22;;;;;;;;;;4192140;34;20516;-60
2022/01/26 07:59:40;;;;;;;11.38;8.13;;;;;;;;;;4192198;34;20111;-60
2022/01/26 08:02:07;;;;;;;11.50;7.97;;;;;;;;;;4192193;34;20435;-60
2022/01/26 08:04:33;;;;;;;10.00;8.07;;;;;;;;;;4192282;34;20105;-60
2022/01/26 08:06:59;;;;;;;12.32;8.07;;;;;;;;;;4191889;34;20132;-60
2022/01/26 08:09:25;;;;;;;12.27;8.27;;;;;;;;;;4191857;34;20132;-59
2022/01/26 08:11:51;;;;;;;9.77;8.38;;;;;;;;;;4190709;34;20093;-60
2022/01/26 08:14:18;;;;;;;11.88;8.20;;;;;;;;;;4190780;34;20106;-60
2022/01/26 08:16:44;;;;;;;10.50;7.22;;;;;;;;;;4190564;34;20159;-62
2022/01/26 08:19:13;;;;;;;10.07;6.85;;;;;;;;;;4190342;34;20263;-61
2022/01/26 08:21:40;;;;;;;12.57;7.60;;;;;;;;;;4190658;34;20526;-62
2022/01/26 08:24:14;;;;;;;10.85;8.32;;;;;;;;;;4189914;34;20480;-61
2022/01/26 08:26:45;;;;;;;13.73;7.45;;;;;;;;;;4190443;34;20122;-60
2022/01/26 08:29:19;;;;;;;14.07;8.48;;;;;;;;;;4190485;34;20125;-60
2022/01/26 08:31:46;;;;;;;23.23;15.13;;;;;;;;;;4191769;34;20129;-62
2022/01/26 08:34:12;;;;;;;14.10;9.23;;;;;;;;;;4191478;34;20541;-59
2022/01/26 08:36:38;;;;;;;12.63;9.30;;;;;;;;;;4191709;34;20137;-61
2022/01/26 08:39:05;;;;;;;17.12;11.75;;;;;;;;;;4191544;34;20142;-60
2022/01/26 08:41:31;;;;;;;14.70;8.65;;;;;;;;;;4191403;34;20108;-61
2022/01/26 08:43:57;;;;;;;13.68;7.93;;;;;;;;;;4190303;34;20597;-60
2022/01/26 08:46:23;;;;;;;11.50;8.57;;;;;;;;;;4190271;34;20195;-59
2022/01/26 08:48:49;;;;;;;11.38;7.72;;;;;;;;;;4191499;34;20121;-58
2022/01/26 08:51:15;;;;;;;9.50;7.97;;;;;;;;;;4191555;34;20206;-60
2022/01/26 08:53:41;;;;;;;12.85;7.60;;;;;;;;;;4191391;34;20106;-61
2022/01/26 08:56:07;;;;;;;10.30;7.75;;;;;;;;;;4191518;34;20177;-61
2022/01/26 08:58:34;;;;;;;11.65;8.02;;;;;;;;;;4191560;34;20101;-60
2022/01/26 09:01:00;;;;;;;12.70;8.32;;;;;;;;;;4191564;34;20553;-60
2022/01/26 09:03:26;;;;;;;9.70;7.65;;;;;;;;;;4191455;34;20121;-59
2022/01/26 09:05:53;;;;;;;9.70;7.32;;;;;;;;;;4190991;34;20181;-59
2022/01/26 09:08:21;;;;;;;11.05;8.02;;;;;;;;;;4191219;34;20482;-60
2022/01/26 09:10:55;;;;;;;11.55;7.93;;;;;;;;;;4191403;34;20121;-60
2022/01/26 09:13:22;;;;;;;11.30;7.55;;;;;;;;;;4191413;34;20119;-60
2022/01/26 09:15:48;;;;;;;13.45;8.48;;;;;;;;;;4191353;34;20207;-61
2022/01/26 09:18:19;;;;;;;15.23;8.57;;;;;;;;;;4191381;34;20118;-60
2022/01/26 09:20:45;;;;;;;12.27;6.90;;;;;;;;;;4191265;34;20110;-60
2022/01/26 09:23:11;;;;;;;81.05;39.60;;;;;;;;;;4191232;34;20129;-59
2022/01/26 09:25:37;;;;;;;16.08;8.77;;;;;;;;;;4191156;34;20114;-60
2022/01/26 09:28:03;;;;;;;11.68;6.20;;;;;;;;;;4191162;34;20519;-59
2022/01/26 09:30:29;;;;;;;13.98;6.53;;;;;;;;;;4189662;34;20110;-59
2022/01/26 09:32:55;;;;;;;13.95;6.62;;;;;;;;;;4189947;34;20114;-60
2022/01/26 09:35:22;;;;;;;11.35;6.32;;;;;;;;;;4189107;34;20109;-60
2022/01/26 09:37:48;;;;;;;15.32;8.10;;;;;;;;;;4189977;34;20116;-60
2022/01/26 09:40:14;;;;;;;14.73;7.50;;;;;;;;;;4190131;34;20117;-60
2022/01/26 09:42:40;;;;;;;19.73;11.63;;;;;;;;;;4190472;34;20114;-62
2022/01/26 09:45:07;;;;;;;17.67;11.27;;;;;;;;;;4190886;34;20118;-61
2022/01/26 09:47:34;;;;;;;17.48;9.75;;;;;;;;;;4191118;34;20555;-61
2022/01/26 09:50:02;;;;;;;16.15;9.73;;;;;;;;;;4190908;34;20752;-64
2022/01/26 09:52:35;;;;;;;17.45;9.25;;;;;;;;;;4191072;34;20122;-61
2022/01/26 09:55:01;;;;;;;14.77;9.38;;;;;;;;;;4190860;34;20105;-63
2022/01/26 09:57:28;;;;;;;18.55;9.45;;;;;;;;;;4191053;34;20503;-63
2022/01/26 09:59:55;;;;;;;15.38;10.05;;;;;;;;;;4190919;34;20106;-63
2022/01/26 10:02:41;;;;;;;14.35;10.45;;;;;;;;;;4191211;34;20521;-63
2022/01/26 10:05:10;;;;;;;15.48;9.90;;;;;;;;;;4189680;34;20126;-63
2022/01/26 10:07:48;;;;;;;15.60;9.93;;;;;;;;;;4177207;34;20114;-60
2022/01/26 10:15:43;;;;;;;14.98;10.27;;;;;;;;;;4177055;34;20102;-64
2022/01/26 10:18:20;;;;;;;14.10;9.95;;;;;;;;;;4177174;34;20115;-63
2022/01/26 10:20:54;;;;;;;16.73;10.52;;;;;;;;;;4176973;34;20107;-62
2022/01/26 10:23:29;;;;;;;15.57;11.12;;;;;;;;;;4177161;34;20988;-63
2022/01/26 10:26:02;;;;;;;18.27;11.68;;;;;;;;;;4176918;34;20129;-63
2022/01/26 10:28:49;;;;;;;14.13;9.40;;;;;;;;;;4176564;34;20114;-62
2022/01/26 10:31:28;;;;;;;13.77;9.50;;;;;;;;;;4177074;34;20513;-62
2022/01/26 10:34:11;;;;;;;16.08;10.20;;;;;;;;;;4176767;34;20193;-63
2022/01/26 10:36:38;;;;;;;14.60;10.05;;;;;;;;;;4177014;34;20110;-63
2022/01/26 10:39:15;;;;;;;15.30;10.30;;;;;;;;;;4176924;34;20215;-63
2022/01/26 10:41:44;;;;;;;14.07;10.77;;;;;;;;;;4175627;34;20099;-63
2022/01/26 10:44:10;;;;;;;15.65;10.05;;;;;;;;;;4176846;34;20118;-63
2022/01/26 10:46:39;;;;;;;16.45;10.70;;;;;;;;;;4176489;34;20121;-64
2022/01/26 10:54:42;;;;;;;15.02;12.05;;;;;;;;;;4176933;34;20125;-63
2022/01/26 10:57:12;;;;;;;17.85;10.65;;;;;;;;;;4176897;34;20447;-63
2022/01/26 10:59:41;;;;;;;15.07;10.85;;;;;;;;;;4176986;34;20113;-63
2022/01/26 11:02:11;;;;;;;17.10;11.07;;;;;;;;;;4176784;34;20122;-63
2022/01/26 11:04:39;;;;;;;16.77;11.30;;;;;;;;;;4176784;34;20134;-63
2022/01/26 11:07:08;;;;;;;14.45;10.13;;;;;;;;;;4188923;34;20122;-63
2022/01/26 11:09:36;;;;;;;18.17;11.35;;;;;;;;;;4190212;34;20113;-62
2022/01/26 11:12:04;;;;;;;17.08;11.10;;;;;;;;;;4177565;34;20642;-62
2022/01/26 11:14:42;;;;;;;14.63;11.07;;;;;;;;;;4190313;34;20166;-63
2022/01/26 11:17:09;;;;;;;17.15;11.25;;;;;;;;;;4190217;34;20540;-60
2022/01/26 11:19:46;;;;;;;17.17;13.13;;;;;;;;;;4190190;34;20098;-60
2022/01/26 11:22:14;;;;;;;16.58;11.90;;;;;;;;;;4190246;34;20125;-62
2022/01/26 11:24:49;;;;;;;16.75;11.90;;;;;;;;;;4189888;34;20121;-63
2022/01/26 11:27:17;;;;;;;14.45;10.77;;;;;;;;;;4190141;34;20137;-63
2022/01/26 11:29:47;;;;;;;15.73;10.93;;;;;;;;;;4190179;34;20205;-61
2022/01/26 11:32:25;;;;;;;16.35;10.95;;;;;;;;;;4190178;34;20116;-62
2022/01/26 11:34:53;;;;;;;18.48;11.25;;;;;;;;;;4190172;34;20129;-63
2022/01/26 11:37:27;;;;;;;16.67;12.02;;;;;;;;;;4190065;34;20110;-63
2022/01/26 11:45:27;;;;;;;14.98;10.90;;;;;;;;;;4190135;34;20451;-63
2022/01/26 11:48:09;;;;;;;13.77;10.45;;;;;;;;;;4189961;34;20133;-61
2022/01/26 11:50:42;;;;;;;16.23;11.45;;;;;;;;;;4189820;34;20119;-62
2022/01/26 11:53:10;;;;;;;16.87;12.85;;;;;;;;;;4177644;34;20214;-61
2022/01/26 11:55:47;;;;;;;15.68;12.15;;;;;;;;;;4189735;34;20193;-61
2022/01/26 11:58:17;;;;;;;17.77;11.38;;;;;;;;;;4177384;34;20121;-63
2022/01/26 12:01:09;;;;;;;13.55;10.00;;;;;;;;;;4191836;34;20122;-63
2022/01/26 12:03:43;;;;;;;15.57;10.27;;;;;;;;;;4180883;34;20129;-64
2022/01/26 12:06:17;;;;;;;16.58;9.95;;;;;;;;;;4191888;34;20594;-62
2022/01/26 12:08:44;;;;;;;15.57;10.48;;;;;;;;;;4191939;34;20127;-63
2022/01/26 12:11:13;;;;;;;16.73;10.57;;;;;;;;;;4191892;34;20486;-63
2022/01/26 12:13:41;;;;;;;17.92;10.93;;;;;;;;;;4192308;34;20136;-65
2022/01/26 12:16:15;;;;;;;17.98;12.90;;;;;;;;;;4192138;34;20098;-66
2022/01/26 12:36:03;;;;;;;18.60;11.77;;;;;;;;;;4191544;34;20559;-63
2022/01/26 12:38:11;;;;;;;16.65;11.52;;;;;;;;;;4188614;34;20213;-62
2022/01/26 12:43:44;;;;;;;21.12;14.43;;;;;;;;;;4191889;34;20193;-64
2022/01/26 12:46:24;;;;;;;20.17;13.70;;;;;;;;;;4191609;34;20157;-64
2022/01/26 12:49:13;;;;;;;22.20;14.43;;;;;;;;;;4191479;34;20614;-63
2022/01/26 12:51:42;;;;;;;18.85;12.90;;;;;;;;;;4191546;34;20113;-60
2022/01/26 12:54:09;;;;;;;18.02;12.73;;;;;;;;;;4178804;34;20141;-58
2022/01/26 12:56:35;;;;;;;20.95;12.60;;;;;;;;;;4191759;34;20563;-63
2022/01/26 12:59:05;;;;;;;19.70;13.02;;;;;;;;;;4191813;34;20548;-62
2022/01/26 13:01:31;;;;;;;21.80;13.90;;;;;;;;;;4191633;34;20125;-63
2022/01/26 13:03:59;;;;;;;23.55;14.70;;;;;;;;;;4191340;34;20526;-64
2022/01/26 13:06:37;;;;;;;22.10;14.87;;;;;;;;;;4191460;34;20110;-63
2022/01/26 13:09:25;;;;;;;24.23;15.65;;;;;;;;;;4191789;34;20129;-63
2022/01/26 13:11:52;;;;;;;23.48;13.85;;;;;;;;;;4191533;34;20110;-63
2022/01/26 13:14:46;;;;;;;26.15;14.32;;;;;;;;;;4178613;34;20586;-63
2022/01/26 13:20:32;;;;;;;28.62;15.02;;;;;;;;;;4191418;34;20130;-64
2022/01/26 13:26:12;;;;;;;22.20;14.15;;;;;;;;;;4191058;34;20186;-64
2022/01/26 13:34:28;;;;;;;22.05;14.27;;;;;;;;;;4191311;34;20106;-64
2022/01/26 13:50:06;;;;;;;20.10;12.00;;;;;;;;;;4190913;34;20156;-62
2022/01/26 13:52:50;;;;;;;16.17;11.35;;;;;;;;;;4190982;34;20114;-61
2022/01/26 13:55:43;;;;;;;19.48;12.20;;;;;;;;;;4190967;34;20118;-61
2022/01/26 14:01:15;;;;;;;18.52;11.38;;;;;;;;;;4175415;34;20194;-61
2022/01/26 14:03:45;;;;;;;17.70;10.93;;;;;;;;;;4190730;34;20129;-63
2022/01/26 14:06:11;;;;;;;16.62;11.60;;;;;;;;;;4190429;34;20118;-60
2022/01/26 14:08:37;;;;;;;16.95;11.57;;;;;;;;;;4191206;34;20448;-63
2022/01/26 14:11:03;;;;;;;16.00;11.00;;;;;;;;;;4190460;34;20117;-63
2022/01/26 14:13:29;;;;;;;20.27;11.40;;;;;;;;;;4190854;34;20117;-63
2022/01/26 14:15:58;;;;;;;18.55;11.73;;;;;;;;;;4190860;34;20591;-62
2022/01/26 14:20:54;;;;;;;20.50;12.65;;;;;;;;;;4190872;34;20225;-65
2022/01/26 14:26:10;;;;;;;20.35;11.63;;;;;;;;;;4190550;34;20177;-63
2022/01/26 14:28:37;;;;;;;21.08;12.63;;;;;;;;;;4190845;34;20109;-62
2022/01/26 14:31:24;;;;;;;24.92;12.77;;;;;;;;;;4190028;34;20181;-63
2022/01/26 14:36:45;;;;;;;20.08;11.85;;;;;;;;;;4190773;34;20098;-62
2022/01/26 15:33:12;;;;;;;17.50;11.23;;;;;;;;;;4189832;34;20089;-62
2022/01/26 15:41:01;;;;;;;15.05;9.98;;;;;;;;;;4191952;34;20117;-64
2022/01/26 15:49:17;;;;;;;16.42;9.80;;;;;;;;;;4192133;34;20222;-63
2022/01/26 16:05:41;;;;;;;14.95;9.95;;;;;;;;;;4191511;34;20106;-63
2022/01/26 16:21:46;;;;;;;16.20;10.35;;;;;;;;;;4192074;34;20473;-61
2022/01/26 16:38:15;;;;;;;17.90;10.63;;;;;;;;;;4191061;34;20575;-62
2022/01/26 17:02:48;;;;;;;13.20;9.80;;;;;;;;;;4190877;34;20105;-63
2022/01/26 17:11:59;;;;;;;15.85;10.50;;;;;;;;;;4189464;34;20233;-63
2022/01/26 18:05:46;;;;;;;18.55;10.50;;;;;;;;;;4190988;34;20173;-63
2022/01/26 18:16:02;;;;;;;17.50;11.40;;;;;;;;;;4181915;34;20114;-64
2022/01/26 18:31:58;;;;;;;16.17;10.80;;;;;;;;;;4190770;34;20511;-62
2022/01/26 18:50:58;;;;;;;18.12;11.38;;;;;;;;;;4190502;34;20145;-63
2022/01/26 18:53:24;;;;;;;17.52;12.07;;;;;;;;;;4177772;34;20100;-63
2022/01/26 18:55:50;;;;;;;17.55;12.10;;;;;;;;;;4190597;34;20207;-63
2022/01/26 18:58:16;;;;;;;18.35;12.80;;;;;;;;;;4190227;34;20117;-63
2022/01/26 19:00:44;;;;;;;23.10;14.20;;;;;;;;;;4190316;34;20104;-63
2022/01/26 19:03:11;;;;;;;19.90;13.30;;;;;;;;;;4190395;34;20130;-68
2022/01/26 19:05:38;;;;;;;29.75;12.85;;;;;;;;;;4190324;34;20098;-60
2022/01/26 19:08:05;;;;;;;20.48;13.65;;;;;;;;;;4189785;34;20137;-64
2022/01/26 19:10:31;;;;;;;15.57;12.13;;;;;;;;;;4190349;34;20118;-66
2022/01/26 19:12:57;;;;;;;18.95;12.85;;;;;;;;;;4177122;34;20118;-66
2022/01/26 19:15:28;;;;;;;17.37;12.15;;;;;;;;;;4190227;34;20204;-67
2022/01/26 19:18:01;;;;;;;21.08;12.65;;;;;;;;;;4190208;34;20440;-68
2022/01/26 19:20:42;;;;;;;19.70;12.50;;;;;;;;;;4189919;34;20118;-67
2022/01/26 19:26:12;;;;;;;22.15;12.48;;;;;;;;;;4181186;34;20238;-67
2022/01/26 19:28:44;;;;;;;16.58;12.15;;;;;;;;;;4190176;34;20130;-66
2022/01/26 19:45:08;;;;;;;16.08;12.10;;;;;;;;;;4189906;34;20129;-67
2022/01/26 19:53:01;;;;;;;20.62;12.18;;;;;;;;;;4190203;34;20266;-66
2022/01/26 19:55:27;;;;;;;16.12;11.02;;;;;;;;;;4189874;34;20097;-67
2022/01/26 19:57:54;;;;;;;16.90;11.90;;;;;;;;;;4177151;34;20543;-64
2022/01/26 20:00:21;;;;;;;18.73;12.13;;;;;;;;;;4190101;34;20111;-64
2022/01/26 20:02:47;;;;;;;14.40;10.82;;;;;;;;;;4165866;34;20105;-65
2022/01/26 20:05:14;;;;;;;18.02;12.65;;;;;;;;;;4189246;34;20178;-66
2022/01/26 20:07:43;;;;;;;17.75;11.40;;;;;;;;;;4189315;34;20536;-66
2022/01/26 20:10:11;;;;;;;16.85;11.52;;;;;;;;;;4189139;34;20118;-65
2022/01/26 20:12:47;;;;;;;18.05;11.80;;;;;;;;;;4189636;34;20094;-66
2022/01/26 20:15:13;;;;;;;17.90;11.27;;;;;;;;;;4189630;34;20121;-65
2022/01/26 20:17:43;;;;;;;16.00;11.80;;;;;;;;;;4189903;34;20117;-68
2022/01/26 20:20:14;;;;;;;15.88;11.18;;;;;;;;;;4190277;34;20166;-67
2022/01/26 20:22:42;;;;;;;16.65;10.95;;;;;;;;;;4191507;34;20218;-66
2022/01/26 20:25:09;;;;;;;17.42;11.75;;;;;;;;;;4191313;34;20132;-67
2022/01/26 20:27:36;;;;;;;15.50;11.40;;;;;;;;;;4191846;34;20120;-67
2022/01/26 20:30:11;;;;;;;17.15;12.48;;;;;;;;;;4179031;34;20102;-67
2022/01/26 20:32:38;;;;;;;15.48;12.50;;;;;;;;;;4180167;34;20098;-67
2022/01/26 20:35:05;;;;;;;19.10;11.73;;;;;;;;;;4191631;34;20205;-66
2022/01/26 20:37:31;;;;;;;15.18;11.27;;;;;;;;;;4191581;34;20125;-65
2022/01/26 20:39:57;;;;;;;13.62;10.80;;;;;;;;;;4191630;34;20118;-65
2022/01/26 20:42:23;;;;;;;14.75;11.20;;;;;;;;;;4191722;34;20181;-66
2022/01/26 20:44:49;;;;;;;15.30;11.85;;;;;;;;;;4191605;34;20540;-66
2022/01/26 20:47:15;;;;;;;15.27;11.15;;;;;;;;;;4191640;34;20113;-66
2022/01/26 20:49:41;;;;;;;14.57;10.95;;;;;;;;;;4191631;34;20118;-64
2022/01/26 20:52:08;;;;;;;17.30;11.35;;;;;;;;;;4191667;34;20110;-66
2022/01/26 20:54:35;;;;;;;14.87;11.12;;;;;;;;;;4191661;34;20215;-66
2022/01/26 20:57:01;;;;;;;14.87;11.23;;;;;;;;;;4191579;34;20200;-66
2022/01/26 20:59:27;;;;;;;15.30;10.15;;;;;;;;;;4191644;34;20097;-66
2022/01/26 21:01:53;;;;;;;15.50;10.55;;;;;;;;;;4178944;34;20442;-66
2022/01/26 21:04:19;;;;;;;15.77;11.10;;;;;;;;;;4191471;34;20130;-66
2022/01/26 21:06:45;;;;;;;13.23;11.30;;;;;;;;;;4178793;34;20215;-66
2022/01/26 21:09:11;;;;;;;16.77;11.32;;;;;;;;;;4191428;34;20535;-65
2022/01/26 21:11:37;;;;;;;13.75;10.27;;;;;;;;;;4191368;34;20114;-66
2022/01/26 21:14:04;;;;;;;14.55;11.02;;;;;;;;;;4191200;34;20114;-65
2022/01/26 21:16:30;;;;;;;15.57;11.82;;;;;;;;;;4191408;34;20201;-65
2022/01/26 21:18:57;;;;;;;18.95;11.48;;;;;;;;;;4191429;34;20155;-65
2022/01/26 21:21:28;;;;;;;18.85;11.48;;;;;;;;;;4191300;34;20122;-66
2022/01/26 21:23:55;;;;;;;15.52;11.32;;;;;;;;;;4191678;34;20135;-67
2022/01/26 21:26:22;;;;;;;15.50;11.77;;;;;;;;;;4178647;34;20498;-67
2022/01/26 21:28:48;;;;;;;16.92;12.37;;;;;;;;;;4191703;34;20122;-67
2022/01/26 21:31:15;;;;;;;15.52;12.37;;;;;;;;;;4191132;34;20117;-68
2022/01/26 21:33:44;;;;;;;15.05;12.18;;;;;;;;;;4191149;34;20129;-67
2022/01/26 21:36:11;;;;;;;16.55;11.68;;;;;;;;;;4178187;34;20202;-67
2022/01/26 21:38:42;;;;;;;15.85;12.00;;;;;;;;;;4190205;34;20137;-67
2022/01/26 21:41:09;;;;;;;17.35;11.98;;;;;;;;;;4178488;34;20617;-66
2022/01/26 21:43:36;;;;;;;13.93;11.35;;;;;;;;;;4178494;34;20529;-67
2022/01/26 21:46:02;;;;;;;14.38;11.10;;;;;;;;;;4191156;34;20140;-67